Newport News, Virginia
Current Conditions -  °F | °C
As of 3:12 PM on Monday 26 Jan 2015 (Local Time) from KLFI Reporting Station
Overcast Overcast  
Wind Chill: 41°   Ceiling: 1300
Heat Index: 46°   Visibility: 10mi
Dew Point: 41°   Wind: 13mph
Humidity: 81%   Direction: 10°N
Pressure: 29.56"   Gusts: 18mph
Location:  36.98°N, 76.43°W
Report Text: KLFI 262012Z AUTO 01011G16KT 10SM OVC013 08/05 A2956 RMK AO2
Loading
Personal Weather Stations






























Interactive Weather Map New forecast layout! Learn more

10-Day Weather Forecast

Advertisements
Track Severe Weather on mobile